Time;durP1;ratioP1;P1;durP2;ratioP2;P2;SDS_P1;SDS_P2;PMS_P1;PMS_P2;Temp;Humidity;BMP_temperature;BMP_pressure;BME280_temperature;BME280_humidity;BME280_pressure;Samples;Min_cycle;Max_cycle;Signal;HPM_P1;HPM_P2
2022/05/31 00:02:12;;;;;;;21.08;8.82;;;16.40;79.50;;;;;;5054727;28;20029;-86
2022/05/31 00:04:38;;;;;;;15.52;8.00;;;16.40;79.20;;;;;;5072733;28;20408;-86
2022/05/31 00:07:07;;;;;;;20.38;8.57;;;16.40;79.30;;;;;;5072599;28;20048;-87
2022/05/31 00:09:33;;;;;;;14.70;8.07;;;16.40;79.70;;;;;;5067230;28;20063;-86
2022/05/31 00:12:00;;;;;;;14.88;8.93;;;16.50;80.90;;;;;;5060507;28;20037;-85
2022/05/31 00:14:27;;;;;;;21.17;8.30;;;16.50;79.20;;;;;;5075913;28;20021;-84
2022/05/31 00:16:53;;;;;;;12.27;7.97;;;16.40;78.50;;;;;;5073383;28;20017;-86
2022/05/31 00:19:19;;;;;;;12.70;7.63;;;16.50;78.40;;;;;;5073055;28;20031;-84
2022/05/31 00:21:50;;;;;;;14.80;8.43;;;16.50;78.10;;;;;;5077112;28;20112;-87
2022/05/31 00:24:19;;;;;;;11.25;7.22;;;16.50;78.00;;;;;;5077205;28;20013;-86
2022/05/31 00:26:45;;;;;;;16.75;7.40;;;16.40;77.60;;;;;;5078078;28;20082;-87
2022/05/31 00:29:12;;;;;;;12.13;7.47;;;16.50;78.30;;;;;;5059362;28;20039;-87
2022/05/31 00:31:43;;;;;;;9.40;6.88;;;16.50;78.20;;;;;;5062478;28;20029;-87
2022/05/31 00:34:10;;;;;;;14.23;7.40;;;16.50;77.70;;;;;;5080543;28;20025;-89
2022/05/31 00:36:38;;;;;;;10.25;7.43;;;16.40;78.90;;;;;;5078609;28;20024;-87
2022/05/31 00:39:05;;;;;;;13.93;6.80;;;16.40;78.70;;;;;;5058690;28;20098;-88
2022/05/31 00:41:33;;;;;;;13.40;7.15;;;16.40;79.10;;;;;;5076693;28;20055;-87
2022/05/31 00:44:11;;;;;;;13.00;6.93;;;16.40;79.40;;;;;;5078159;28;20017;-88
2022/05/31 00:46:46;;;;;;;11.55;6.20;;;16.40;78.80;;;;;;5076438;28;20101;-88
2022/05/31 00:49:18;;;;;;;8.98;5.85;;;16.40;79.20;;;;;;5078810;28;20020;-87
2022/05/31 00:51:49;;;;;;;10.25;5.75;;;16.40;78.80;;;;;;5082645;28;20020;-87
2022/05/31 00:54:18;;;;;;;10.98;5.15;;;16.40;78.30;;;;;;5092771;28;20015;-86
2022/05/31 00:56:47;;;;;;;8.07;5.55;;;16.40;78.30;;;;;;5088591;28;20055;-89
2022/05/31 00:59:20;;;;;;;7.10;6.13;;;16.40;79.00;;;;;;5084860;28;20105;-88
2022/05/31 01:01:51;;;;;;;9.52;6.75;;;16.40;78.80;;;;;;5068797;28;20023;-87
2022/05/31 01:04:19;;;;;;;12.88;5.95;;;16.30;79.50;;;;;;5069771;28;20063;-87
2022/05/31 01:06:44;;;;;;;;;;;16.30;79.40;;;;;;5082209;28;20374;-89
2022/05/31 01:09:10;;;;;;;9.48;5.68;;;16.30;78.60;;;;;;5064909;28;19927;-89
2022/05/31 01:11:39;;;;;;;10.95;6.70;;;16.30;79.10;;;;;;5078495;28;20024;-89
2022/05/31 01:14:06;;;;;;;11.63;6.35;;;16.30;79.70;;;;;;5076501;28;20042;-88
2022/05/31 01:16:32;;;;;;;11.57;6.80;;;16.20;79.90;;;;;;5076535;28;20085;-89
2022/05/31 01:18:58;;;;;;;9.73;6.55;;;16.20;80.00;;;;;;5067605;28;20039;-89
2022/05/31 01:21:27;;;;;;;11.00;6.55;;;16.20;79.90;;;;;;5075224;28;20485;-89
2022/05/31 01:24:04;;;;;;;8.88;7.05;;;16.10;80.40;;;;;;5066351;28;20051;-88
2022/05/31 01:26:53;;;;;;;9.82;6.55;;;16.10;80.80;;;;;;5072073;28;20039;-88
2022/05/31 01:29:34;;;;;;;11.38;7.07;;;16.00;82.50;;;;;;5079979;28;20021;-87
2022/05/31 01:32:07;;;;;;;12.05;7.70;;;15.80;83.40;;;;;;5083802;28;20047;-91
2022/05/31 01:34:35;;;;;;;10.15;6.50;;;15.70;84.70;;;;;;5079630;28;20023;-88
2022/05/31 01:37:01;;;;;;;10.20;7.45;;;15.70;84.90;;;;;;5077699;28;20449;-88
2022/05/31 01:39:49;;;;;;;11.27;7.15;;;15.60;85.30;;;;;;5064479;28;20049;-88
2022/05/31 01:42:33;;;;;;;10.68;6.40;;;15.60;86.10;;;;;;5082975;28;20020;-89
2022/05/31 01:45:05;;;;;;;6.75;5.95;;;15.60;86.30;;;;;;5076992;28;20020;-89
2022/05/31 01:47:31;;;;;;;6.82;6.05;;;15.50;85.60;;;;;;5079508;28;20024;-90
2022/05/31 01:49:58;;;;;;;6.30;5.47;;;15.40;86.30;;;;;;5081108;28;20029;-87
2022/05/31 01:52:24;;;;;;;7.72;5.65;;;15.40;86.60;;;;;;5086412;28;20017;-89
2022/05/31 01:54:53;;;;;;;8.47;6.17;;;15.30;86.60;;;;;;5081674;28;20031;-90
2022/05/31 01:57:19;;;;;;;10.98;5.97;;;15.30;87.40;;;;;;5077803;28;20104;-90
2022/05/31 01:59:54;;;;;;;8.68;6.68;;;15.30;88.20;;;;;;5059299;28;20040;-90
2022/05/31 02:02:21;;;;;;;9.20;5.75;;;15.30;89.10;;;;;;5076029;28;20150;-88
2022/05/31 02:04:47;;;;;;;7.53;5.57;;;15.30;89.90;;;;;;5079441;28;20027;-88
2022/05/31 02:07:22;;;;;;;8.82;5.35;;;15.30;90.10;;;;;;5090666;28;20020;-89
2022/05/31 02:09:50;;;;;;;9.27;5.47;;;15.20;90.10;;;;;;5072745;28;20020;-89
2022/05/31 02:12:16;;;;;;;;;;;15.20;90.20;;;;;;5059899;28;20021;-87
2022/05/31 02:14:42;;;;;;;10.85;5.47;;;15.30;89.40;;;;;;5058489;28;19911;-88
2022/05/31 02:17:08;;;;;;;8.55;5.05;;;15.20;90.00;;;;;;5075784;28;20012;-89
2022/05/31 02:19:35;;;;;;;9.50;5.43;;;15.20;90.30;;;;;;5076138;28;20024;-89
2022/05/31 02:22:04;;;;;;;7.45;5.57;;;15.30;90.10;;;;;;5060019;28;20478;-90
2022/05/31 02:24:30;;;;;;;9.00;5.80;;;15.30;90.50;;;;;;5076127;28;20025;-88
2022/05/31 02:26:56;;;;;;;8.13;5.03;;;15.20;90.70;;;;;;5060975;28;20027;-88
2022/05/31 02:29:25;;;;;;;7.47;4.50;;;15.20;90.70;;;;;;5079026;28;20095;-90
2022/05/31 02:31:52;;;;;;;8.00;4.90;;;15.30;90.40;;;;;;5075725;28;20096;-91
2022/05/31 02:34:22;;;;;;;11.93;4.82;;;15.20;90.30;;;;;;5076676;28;20035;-89
2022/05/31 02:36:48;;;;;;;5.93;4.68;;;15.20;90.60;;;;;;5088247;28;20024;-88
2022/05/31 02:39:14;;;;;;;12.75;5.28;;;15.20;90.90;;;;;;5082505;28;20036;-89
2022/05/31 02:41:40;;;;;;;8.30;4.60;;;15.20;91.00;;;;;;5077127;28;20104;-90
2022/05/31 02:44:06;;;;;;;8.98;4.72;;;15.20;90.90;;;;;;5077138;28;20334;-90
2022/05/31 02:46:33;;;;;;;5.90;4.90;;;15.10;90.70;;;;;;5076283;28;20048;-88
2022/05/31 02:48:59;;;;;;;7.70;4.80;;;15.10;90.70;;;;;;5056956;28;20359;-88
2022/05/31 02:51:26;;;;;;;10.20;5.73;;;15.00;90.70;;;;;;5075446;28;20107;-87
2022/05/31 02:53:52;;;;;;;6.20;4.15;;;15.00;91.30;;;;;;5077018;28;20029;-89
2022/05/31 02:56:18;;;;;;;9.35;5.05;;;15.00;91.10;;;;;;5057705;28;20070;-88
2022/05/31 02:58:44;;;;;;;5.28;4.55;;;14.90;91.50;;;;;;5059274;28;20083;-88
2022/05/31 03:01:22;;;;;;;7.63;4.57;;;14.80;91.70;;;;;;5061521;28;20024;-88
2022/05/31 03:03:48;;;;;;;7.55;4.88;;;14.80;92.30;;;;;;5080712;28;20079;-88
2022/05/31 03:06:14;;;;;;;7.72;4.55;;;14.80;92.30;;;;;;5078745;28;20012;-87
2022/05/31 03:08:40;;;;;;;7.03;4.65;;;14.80;92.70;;;;;;5059426;28;20029;-88
2022/05/31 03:11:10;;;;;;;9.73;4.30;;;14.70;92.90;;;;;;5059905;28;20032;-88
2022/05/31 03:13:37;;;;;;;6.72;4.90;;;14.70;93.00;;;;;;5076329;28;20035;-89
2022/05/31 03:16:04;;;;;;;7.47;4.95;;;14.60;92.90;;;;;;5078013;28;20050;-88
2022/05/31 03:18:39;;;;;;;6.47;4.50;;;14.60;93.40;;;;;;5076739;28;20059;-87
2022/05/31 03:21:11;;;;;;;7.38;4.35;;;14.60;93.70;;;;;;5078510;28;20013;-86
2022/05/31 03:23:45;;;;;;;6.85;5.00;;;14.40;94.10;;;;;;5060573;28;20119;-86
2022/05/31 03:26:13;;;;;;;7.85;4.45;;;14.40;94.20;;;;;;5074870;28;20039;-87
2022/05/31 03:28:39;;;;;;;5.75;4.70;;;14.30;94.80;;;;;;5073275;28;20022;-86
2022/05/31 03:31:07;;;;;;;9.32;5.03;;;14.20;95.00;;;;;;5073551;28;20104;-87
2022/05/31 03:33:33;;;;;;;15.57;5.63;;;14.10;95.80;;;;;;5061644;28;20068;-86
2022/05/31 03:35:59;;;;;;;5.85;4.72;;;14.10;96.20;;;;;;5075513;28;20222;-86
2022/05/31 03:38:25;;;;;;;7.63;4.65;;;14.10;96.60;;;;;;5055440;28;20081;-85
2022/05/31 03:40:57;;;;;;;6.63;5.60;;;14.10;96.80;;;;;;5080363;28;20080;-87
2022/05/31 03:43:30;;;;;;;6.03;4.55;;;14.10;97.00;;;;;;5081336;28;20016;-88
2022/05/31 03:45:56;;;;;;;9.20;4.95;;;14.10;97.20;;;;;;5080038;28;20031;-88
2022/05/31 03:48:22;;;;;;;7.70;4.80;;;14.20;97.60;;;;;;5075156;28;20028;-89
2022/05/31 03:50:58;;;;;;;6.70;5.13;;;14.20;97.80;;;;;;5061453;28;20016;-88
2022/05/31 03:53:25;;;;;;;10.00;4.93;;;14.40;97.80;;;;;;5060759;28;20032;-88
2022/05/31 03:55:50;;;;;;;8.23;4.43;;;14.50;97.70;;;;;;5088730;28;20020;-88
2022/05/31 03:58:16;;;;;;;7.40;5.22;;;14.40;97.60;;;;;;5070146;28;20111;-88
2022/05/31 04:00:42;;;;;;;6.13;4.70;;;14.50;97.70;;;;;;5060660;28;20382;-84
2022/05/31 04:03:08;;;;;;;6.93;5.15;;;14.50;97.70;;;;;;5066080;28;20024;-84
2022/05/31 04:05:34;;;;;;;6.88;5.22;;;14.50;98.00;;;;;;5071780;28;20021;-85
2022/05/31 04:08:08;;;;;;;8.90;4.88;;;14.60;98.10;;;;;;5078094;28;20052;-84
2022/05/31 04:10:35;;;;;;;7.57;4.90;;;14.60;98.30;;;;;;5080533;28;20093;-86
2022/05/31 04:13:02;;;;;;;7.53;5.43;;;14.60;98.00;;;;;;5057270;28;20436;-88
2022/05/31 04:15:28;;;;;;;6.78;4.72;;;14.70;97.80;;;;;;5077172;28;20021;-86
2022/05/31 04:17:54;;;;;;;8.73;4.75;;;14.70;97.70;;;;;;5057748;28;20086;-87
2022/05/31 04:20:20;;;;;;;6.65;4.25;;;14.70;97.40;;;;;;5073624;28;20478;-87
2022/05/31 04:22:47;;;;;;;9.90;4.47;;;14.70;97.40;;;;;;5074878;28;20033;-88
2022/05/31 04:25:13;;;;;;;8.35;4.05;;;14.60;97.10;;;;;;5065442;28;20021;-86
2022/05/31 04:27:39;;;;;;;5.05;4.40;;;14.60;97.20;;;;;;5074383;28;20045;-86
2022/05/31 04:30:05;;;;;;;6.95;4.53;;;14.70;97.40;;;;;;5077868;28;20426;-88
2022/05/31 04:32:31;;;;;;;7.05;3.83;;;14.70;97.70;;;;;;5091301;28;20064;-87
2022/05/31 04:34:57;;;;;;;4.80;3.85;;;14.70;97.30;;;;;;5077888;28;20044;-88
2022/05/31 04:37:23;;;;;;;7.25;4.35;;;14.60;96.90;;;;;;5075151;28;20028;-86
2022/05/31 04:39:49;;;;;;;9.02;5.05;;;14.50;97.20;;;;;;5075986;28;20449;-86
2022/05/31 04:42:16;;;;;;;5.07;4.32;;;14.60;97.10;;;;;;5067862;28;20116;-85
2022/05/31 04:44:42;;;;;;;8.65;5.32;;;14.50;97.40;;;;;;5089385;28;20021;-88
2022/05/31 04:47:08;;;;;;;10.00;5.32;;;14.60;97.30;;;;;;5051189;28;20596;-86
2022/05/31 04:49:34;;;;;;;10.70;4.85;;;14.50;97.20;;;;;;5071701;28;20029;-84
2022/05/31 04:52:00;;;;;;;6.35;5.00;;;14.50;97.30;;;;;;5055404;28;20025;-85
2022/05/31 04:54:30;;;;;;;6.00;4.95;;;14.50;97.20;;;;;;5075624;28;20102;-86
2022/05/31 04:57:01;;;;;;;9.18;4.82;;;14.40;97.00;;;;;;5068997;28;20470;-88
2022/05/31 04:59:27;;;;;;;11.50;4.47;;;14.30;97.10;;;;;;5073404;28;20033;-88
2022/05/31 05:01:53;;;;;;;8.63;4.97;;;14.20;97.30;;;;;;5079410;28;20019;-90
2022/05/31 05:04:19;;;;;;;7.75;5.07;;;14.10;97.40;;;;;;5080613;28;20613;-87
2022/05/31 05:06:45;;;;;;;10.40;4.68;;;14.10;97.90;;;;;;5060271;28;20025;-88
2022/05/31 05:09:10;;;;;;;12.52;5.05;;;14.10;98.20;;;;;;5080905;28;20021;-88
2022/05/31 05:11:36;;;;;;;8.48;5.07;;;14.10;98.00;;;;;;5078821;28;20448;-84
2022/05/31 05:14:02;;;;;;;6.50;5.13;;;14.10;98.20;;;;;;5081346;28;20377;-85
2022/05/31 05:16:28;;;;;;;7.03;5.40;;;14.10;98.30;;;;;;5090020;28;20032;-85
2022/05/31 05:18:55;;;;;;;8.38;5.75;;;14.20;98.30;;;;;;5086880;28;20029;-85
2022/05/31 05:21:21;;;;;;;7.75;5.78;;;14.20;98.10;;;;;;5079132;28;20024;-84
2022/05/31 05:23:46;;;;;;;12.13;5.80;;;14.20;98.30;;;;;;5060060;28;20391;-86
2022/05/31 05:26:13;;;;;;;9.63;6.05;;;14.40;98.40;;;;;;5079949;28;20104;-86
2022/05/31 05:31:41;;;;;;;10.57;6.30;;;14.70;97.80;;;;;;5014957;28;20109;-85
2022/05/31 05:34:07;;;;;;;8.88;5.65;;;14.80;97.40;;;;;;5067507;28;20044;-84
2022/05/31 05:36:34;;;;;;;7.00;5.75;;;14.90;97.20;;;;;;5080187;28;20025;-85
2022/05/31 05:39:00;;;;;;;8.07;5.32;;;15.00;96.90;;;;;;5076241;28;20039;-83
2022/05/31 05:41:29;;;;;;;8.82;6.57;;;15.00;96.90;;;;;;5076207;28;20016;-85
2022/05/31 05:43:55;;;;;;;8.95;5.75;;;15.10;96.90;;;;;;5063563;28;20043;-83
2022/05/31 05:46:23;;;;;;;9.98;6.93;;;15.10;96.90;;;;;;5067238;28;20041;-83
2022/05/31 05:48:50;;;;;;;8.63;5.82;;;15.20;97.20;;;;;;5072139;28;20130;-83
2022/05/31 05:51:17;;;;;;;8.57;6.13;;;15.20;97.10;;;;;;5081054;28;20023;-83
2022/05/31 05:53:44;;;;;;;6.55;5.65;;;15.20;97.20;;;;;;5086051;28;20029;-84
2022/05/31 05:56:11;;;;;;;9.45;5.78;;;15.30;97.10;;;;;;5078178;28;20067;-83
2022/05/31 05:58:37;;;;;;;7.85;5.45;;;15.40;97.00;;;;;;5074843;28;20032;-83
2022/05/31 06:01:06;;;;;;;13.32;6.78;;;15.50;96.50;;;;;;5066784;28;20025;-84
2022/05/31 06:03:44;;;;;;;7.28;6.13;;;15.50;96.40;;;;;;5073706;28;20513;-83
2022/05/31 06:06:13;;;;;;;9.98;5.55;;;15.50;96.50;;;;;;5066448;28;20025;-84
2022/05/31 06:08:56;;;;;;;12.13;6.55;;;15.50;96.10;;;;;;5073878;28;20031;-84
2022/05/31 06:11:28;;;;;;;8.90;6.15;;;15.50;96.30;;;;;;5073767;28;20359;-83
2022/05/31 06:14:02;;;;;;;11.55;7.15;;;15.60;96.80;;;;;;5074116;28;20020;-86
2022/05/31 06:16:34;;;;;;;9.65;6.82;;;15.70;96.10;;;;;;5059326;28;20047;-87
2022/05/31 06:19:06;;;;;;;12.45;8.25;;;15.70;96.10;;;;;;5075219;28;20119;-86
2022/05/31 06:21:33;;;;;;;13.70;8.95;;;15.80;96.40;;;;;;5074843;28;20020;-85
2022/05/31 06:24:00;;;;;;;12.30;9.68;;;15.80;96.70;;;;;;5075850;28;20036;-87
2022/05/31 06:26:28;;;;;;;13.30;9.43;;;16.00;96.90;;;;;;5062557;28;20340;-88
2022/05/31 06:28:53;;;;;;;;;;;16.00;97.10;;;;;;5073380;28;20426;-88
2022/05/31 06:31:19;;;;;;;15.18;8.48;;;16.10;96.70;;;;;;5076823;28;19931;-87
2022/05/31 06:33:45;;;;;;;11.23;7.60;;;16.10;96.60;;;;;;5082083;28;20023;-85
2022/05/31 06:36:11;;;;;;;10.80;7.53;;;16.20;96.30;;;;;;5081918;28;20020;-88
2022/05/31 06:38:43;;;;;;;9.77;6.82;;;16.10;96.20;;;;;;5058659;28;20036;-90
2022/05/31 06:41:09;;;;;;;13.25;8.38;;;16.00;95.90;;;;;;5057615;28;20025;-89
2022/05/31 06:43:34;;;;;;;11.10;7.97;;;15.90;96.10;;;;;;5067606;28;20046;-91
2022/05/31 06:46:05;;;;;;;13.10;8.38;;;15.80;96.50;;;;;;5054517;28;20025;-89
2022/05/31 06:48:31;;;;;;;15.18;9.25;;;15.80;97.10;;;;;;5067152;28;20123;-87
2022/05/31 06:50:57;;;;;;;12.00;7.90;;;15.90;97.40;;;;;;5055646;28;20048;-88
2022/05/31 06:58:51;;;;;;;12.00;8.88;;;16.10;97.60;;;;;;5084017;28;20039;-87
2022/05/31 07:01:17;;;;;;;12.95;7.10;;;16.20;97.70;;;;;;5055322;28;20017;-89
2022/05/31 07:03:43;;;;;;;11.85;7.57;;;16.20;97.20;;;;;;5076372;28;20024;-85
2022/05/31 07:06:09;;;;;;;16.23;9.43;;;16.30;96.90;;;;;;5073832;28;20021;-87
2022/05/31 07:08:35;;;;;;;10.52;8.18;;;16.40;97.00;;;;;;5073768;28;20116;-83
2022/05/31 07:11:01;;;;;;;10.43;7.40;;;16.40;96.30;;;;;;5055574;28;20020;-84
2022/05/31 07:13:27;;;;;;;11.05;7.70;;;16.50;96.20;;;;;;5073934;28;20036;-83
2022/05/31 07:15:53;;;;;;;14.07;9.13;;;16.50;96.00;;;;;;5073104;28;20024;-80
2022/05/31 07:18:19;;;;;;;10.65;8.45;;;16.60;96.20;;;;;;5073286;28;20032;-87
2022/05/31 07:20:46;;;;;;;11.15;8.68;;;16.60;96.40;;;;;;5071803;28;20147;-80
2022/05/31 07:23:12;;;;;;;11.70;9.90;;;16.60;96.30;;;;;;5072735;28;20028;-80
2022/05/31 07:25:38;;;;;;;13.57;9.73;;;16.60;96.80;;;;;;5071482;28;20074;-81
2022/05/31 07:28:04;;;;;;;19.77;9.35;;;16.70;96.60;;;;;;5072726;28;20099;-82
2022/05/31 07:30:30;;;;;;;13.10;9.63;;;16.90;96.00;;;;;;5073524;28;20115;-83
2022/05/31 07:32:56;;;;;;;16.48;9.95;;;17.00;95.10;;;;;;5072146;28;20465;-79
2022/05/31 07:35:21;;;;;;;13.73;9.57;;;17.00;94.60;;;;;;5071816;28;20044;-82
2022/05/31 07:37:47;;;;;;;19.80;11.13;;;17.20;94.30;;;;;;5071782;28;20025;-82
2022/05/31 07:40:13;;;;;;;13.32;9.50;;;17.30;93.70;;;;;;5071812;28;20503;-82
2022/05/31 07:42:39;;;;;;;17.48;11.68;;;17.40;93.30;;;;;;5061699;28;20021;-81
2022/05/31 07:45:05;;;;;;;14.93;10.57;;;17.50;93.70;;;;;;5058339;28;20029;-81
2022/05/31 07:47:31;;;;;;;18.00;10.30;;;17.60;93.40;;;;;;5062146;28;20074;-83
2022/05/31 07:49:58;;;;;;;13.00;10.55;;;17.80;93.10;;;;;;5072200;28;20045;-81
2022/05/31 07:52:25;;;;;;;15.80;9.95;;;18.10;93.20;;;;;;5067902;28;20048;-79
2022/05/31 07:54:50;;;;;;;13.70;9.85;;;18.60;92.90;;;;;;5061616;28;20036;-79
2022/05/31 08:00:01;;;;;;;15.38;10.25;;;20.00;90.60;;;;;;5072434;28;20405;-81
2022/05/31 08:02:27;;;;;;;12.43;8.25;;;20.70;89.00;;;;;;5072961;28;20051;-82
2022/05/31 08:04:53;;;;;;;12.85;8.25;;;21.00;84.10;;;;;;5073309;28;20036;-82
2022/05/31 08:07:18;;;;;;;18.15;8.15;;;20.70;84.00;;;;;;5077031;28;20016;-83
2022/05/31 08:09:44;;;;;;;10.73;8.90;;;20.30;84.50;;;;;;5080633;28;20040;-82
2022/05/31 08:12:11;;;;;;;14.25;10.00;;;19.80;85.00;;;;;;5059563;28;20021;-83
2022/05/31 08:14:37;;;;;;;12.85;9.68;;;19.50;87.00;;;;;;5076363;28;20029;-85
2022/05/31 08:17:04;;;;;;;14.88;8.13;;;19.30;87.60;;;;;;5073222;28;20025;-82
2022/05/31 08:19:30;;;;;;;12.85;9.05;;;19.10;88.30;;;;;;5064499;28;20108;-81
2022/05/31 08:21:57;;;;;;;15.07;9.90;;;18.90;89.30;;;;;;5071955;28;20028;-82
2022/05/31 08:24:24;;;;;;;10.75;8.27;;;18.80;89.50;;;;;;5072338;28;20504;-82
2022/05/31 08:26:50;;;;;;;15.32;9.57;;;18.60;89.20;;;;;;5071486;28;20028;-81
2022/05/31 08:29:17;;;;;;;10.52;8.45;;;18.40;90.10;;;;;;5071519;28;20101;-81
2022/05/31 08:31:44;;;;;;;12.43;9.15;;;18.30;90.80;;;;;;5063554;28;20017;-84
2022/05/31 08:34:11;;;;;;;12.75;8.30;;;18.10;91.00;;;;;;5071342;28;20035;-84
2022/05/31 08:36:37;;;;;;;12.35;8.95;;;17.90;91.10;;;;;;5071652;28;20060;-82
2022/05/31 08:39:04;;;;;;;11.43;9.80;;;17.80;91.40;;;;;;5071299;28;20105;-83
2022/05/31 08:41:39;;;;;;;12.23;8.88;;;17.60;91.80;;;;;;5074063;28;20029;-84
2022/05/31 08:44:12;;;;;;;17.10;9.88;;;17.50;91.70;;;;;;5075108;28;20074;-87
2022/05/31 08:47:01;;;;;;;17.30;10.07;;;17.50;91.80;;;;;;5076462;28;20045;-86
2022/05/31 08:52:52;;;;;;;16.77;9.35;;;17.50;92.20;;;;;;5075815;28;20027;-87
2022/05/31 08:58:39;;;;;;;9.65;7.22;;;17.60;92.40;;;;;;5081630;28;20052;-88
2022/05/31 09:01:08;;;;;;;11.93;6.65;;;17.60;91.30;;;;;;5078797;28;20032;-88
2022/05/31 09:03:44;;;;;;;12.30;6.90;;;17.60;91.10;;;;;;5075978;28;20100;-88
2022/05/31 09:06:15;;;;;;;14.13;7.00;;;17.60;91.20;;;;;;5076000;28;20477;-85
2022/05/31 09:09:07;;;;;;;10.80;7.55;;;17.70;90.40;;;;;;5075842;28;20100;-85
2022/05/31 09:11:40;;;;;;;14.57;7.63;;;17.60;91.10;;;;;;5076091;28;20055;-84
2022/05/31 09:14:19;;;;;;;12.80;7.32;;;17.60;91.40;;;;;;5081281;28;20024;-85
2022/05/31 09:17:18;;;;;;;11.02;6.80;;;17.60;91.80;;;;;;5077760;28;20028;-86
2022/05/31 09:19:51;;;;;;;13.15;7.10;;;17.60;91.60;;;;;;5078317;28;20049;-84
2022/05/31 09:22:17;;;;;;;9.80;7.00;;;17.40;91.70;;;;;;5084763;28;20089;-85
2022/05/31 09:24:45;;;;;;;13.38;7.00;;;17.40;91.50;;;;;;5077232;28;20036;-84
2022/05/31 09:27:14;;;;;;;10.88;7.18;;;17.40;92.30;;;;;;5075999;28;20082;-85
2022/05/31 09:30:02;;;;;;;8.65;5.57;;;17.60;92.00;;;;;;5075787;28;20402;-84
2022/05/31 09:33:04;;;;;;;12.25;6.30;;;17.70;91.30;;;;;;5044614;28;20017;-85
2022/05/31 09:35:39;;;;;;;11.90;6.85;;;18.00;90.80;;;;;;5076120;28;20032;-85
2022/05/31 09:38:24;;;;;;;7.13;5.35;;;18.30;90.20;;;;;;5078288;28;20041;-86
2022/05/31 09:41:06;;;;;;;8.68;5.05;;;18.50;87.90;;;;;;5071255;28;20028;-86
2022/05/31 09:43:47;;;;;;;8.20;5.30;;;18.50;86.40;;;;;;5075914;28;20101;-83
2022/05/31 09:46:32;;;;;;;13.07;5.68;;;18.50;86.20;;;;;;5075271;28;20437;-84
2022/05/31 09:48:59;;;;;;;9.60;5.20;;;18.60;86.50;;;;;;5074118;28;20393;-87
2022/05/31 09:51:42;;;;;;;10.15;5.45;;;18.70;86.20;;;;;;5075697;28;20013;-88
2022/05/31 09:57:07;;;;;;;8.07;4.95;;;18.60;86.40;;;;;;5074246;28;20032;-87
2022/05/31 09:59:43;;;;;;;11.27;5.82;;;18.50;85.20;;;;;;5073299;28;20036;-83
2022/05/31 10:02:26;;;;;;;6.93;5.00;;;18.40;86.80;;;;;;5067655;28;20564;-83
2022/05/31 10:05:17;;;;;;;6.93;4.85;;;18.40;87.00;;;;;;5064112;28;20056;-86
2022/05/31 10:07:43;;;;;;;8.85;5.22;;;18.30;86.30;;;;;;5075283;28;20026;-85
2022/05/31 10:10:24;;;;;;;17.15;5.15;;;18.20;85.40;;;;;;5075350;28;20385;-82
2022/05/31 10:12:54;;;;;;;12.13;5.57;;;18.20;85.00;;;;;;5075988;28;20012;-86
2022/05/31 10:15:44;;;;;;;12.55;5.80;;;18.10;86.50;;;;;;5070495;28;20055;-84
2022/05/31 10:18:22;;;;;;;7.53;6.72;;;18.10;85.40;;;;;;5074116;28;20036;-81
2022/05/31 10:20:57;;;;;;;10.82;6.32;;;18.10;86.80;;;;;;5073939;28;20020;-80
2022/05/31 10:23:31;;;;;;;7.82;5.60;;;18.10;87.20;;;;;;5076344;28;20110;-83
2022/05/31 10:25:59;;;;;;;7.97;6.15;;;18.20;87.50;;;;;;5090441;28;20476;-82
2022/05/31 10:28:30;;;;;;;7.10;5.07;;;18.30;87.50;;;;;;5076118;28;20351;-83
2022/05/31 10:31:21;;;;;;;8.43;5.90;;;18.20;85.70;;;;;;5076648;28;20405;-81
2022/05/31 10:34:00;;;;;;;10.02;6.10;;;18.30;85.80;;;;;;5069559;28;20025;-80
2022/05/31 10:36:51;;;;;;;9.05;6.50;;;18.30;86.10;;;;;;5076366;28;20029;-83
2022/05/31 10:39:21;;;;;;;9.73;6.07;;;18.30;85.60;;;;;;5072950;28;20063;-81
2022/05/31 10:41:49;;;;;;;12.38;6.13;;;18.10;86.10;;;;;;5055735;28;20466;-81
2022/05/31 10:44:28;;;;;;;11.88;6.35;;;17.80;87.50;;;;;;5052843;28;20029;-82
2022/05/31 10:47:17;;;;;;;10.80;6.70;;;17.60;87.70;;;;;;5071231;28;20471;-79
2022/05/31 10:49:45;;;;;;;9.88;6.88;;;17.50;88.90;;;;;;5073323;28;20521;-80
2022/05/31 10:52:59;;;;;;;12.60;7.40;;;17.30;90.40;;;;;;5073457;28;20033;-82
2022/05/31 10:55:45;;;;;;;9.82;8.13;;;17.20;90.80;;;;;;5073199;28;20417;-79
2022/05/31 10:58:26;;;;;;;12.00;8.73;;;17.20;91.30;;;;;;5073417;28;20028;-79
2022/05/31 11:01:18;;;;;;;9.40;6.95;;;17.10;92.10;;;;;;5076063;28;20104;-82
2022/05/31 11:03:52;;;;;;;8.18;7.32;;;17.10;91.30;;;;;;5073239;28;20112;-81
2022/05/31 11:06:38;;;;;;;14.25;10.52;;;17.00;91.70;;;;;;5054343;28;20390;-79
2022/05/31 11:12:28;;;;;;;12.10;8.27;;;17.10;92.30;;;;;;5073413;28;20065;-82
2022/05/31 11:15:02;;;;;;;14.07;8.10;;;17.10;92.90;;;;;;5070885;28;20052;-81
2022/05/31 11:17:51;;;;;;;14.55;8.73;;;17.10;92.60;;;;;;5072593;28;20016;-80
2022/05/31 11:20:32;;;;;;;10.73;9.32;;;17.20;93.20;;;;;;5053625;28;20024;-82
2022/05/31 11:23:41;;;;;;;18.73;9.77;;;17.30;93.00;;;;;;5072931;28;20112;-81
2022/05/31 11:26:25;;;;;;;17.40;8.60;;;17.20;93.00;;;;;;5065585;28;20020;-82
2022/05/31 11:29:25;;;;;;;21.27;9.05;;;17.20;93.50;;;;;;5072089;28;20024;-81
2022/05/31 11:32:06;;;;;;;17.70;9.73;;;17.20;93.60;;;;;;5071682;28;20042;-80
2022/05/31 11:35:03;;;;;;;14.93;9.50;;;17.30;93.70;;;;;;5054684;28;20024;-79
2022/05/31 11:37:28;;;;;;;13.35;10.65;;;17.30;93.90;;;;;;5061130;28;20058;-80
2022/05/31 11:40:03;;;;;;;13.63;10.32;;;17.30;94.30;;;;;;5074227;28;20020;-81
2022/05/31 11:42:53;;;;;;;13.15;10.10;;;17.40;94.30;;;;;;5072259;28;20088;-79
2022/05/31 11:45:33;;;;;;;11.63;9.80;;;17.40;93.90;;;;;;5069700;28;20322;-79
2022/05/31 11:48:38;;;;;;;12.38;8.82;;;17.50;94.10;;;;;;5072044;28;20414;-76
2022/05/31 11:51:31;;;;;;;10.27;9.27;;;17.50;93.60;;;;;;5041310;28;20060;-77
2022/05/31 11:54:21;;;;;;;10.15;9.05;;;17.50;93.90;;;;;;5064265;28;20107;-77
2022/05/31 11:57:18;;;;;;;13.00;9.82;;;17.60;93.80;;;;;;5069410;28;20027;-80
2022/05/31 11:59:51;;;;;;;19.02;13.75;;;17.60;93.70;;;;;;5047178;28;20063;-79
2022/05/31 12:02:56;;;;;;;12.52;10.75;;;17.80;93.80;;;;;;5067333;28;20016;-80
2022/05/31 12:05:46;;;;;;;13.63;9.43;;;18.00;93.20;;;;;;5068589;28;20119;-78
2022/05/31 12:08:23;;;;;;;11.93;9.77;;;18.10;93.30;;;;;;5069080;28;20107;-78
2022/05/31 12:10:56;;;;;;;16.08;9.30;;;18.20;92.70;;;;;;5065895;28;20017;-77
2022/05/31 12:13:23;;;;;;;14.32;9.43;;;18.20;92.20;;;;;;5071008;28;20020;-81
2022/05/31 12:15:52;;;;;;;13.70;7.78;;;18.30;92.00;;;;;;5055085;28;20040;-77
2022/05/31 12:18:39;;;;;;;12.57;7.63;;;18.40;91.70;;;;;;5075883;28;20486;-78
2022/05/31 12:21:24;;;;;;;14.63;8.88;;;18.50;91.50;;;;;;5075627;28;20024;-79
2022/05/31 12:24:11;;;;;;;14.05;7.78;;;18.60;91.50;;;;;;5058480;28;20035;-77
2022/05/31 12:26:51;;;;;;;8.18;6.95;;;18.70;91.50;;;;;;5070595;28;20032;-78
2022/05/31 12:29:52;;;;;;;11.60;8.02;;;18.70;91.60;;;;;;5075574;28;20040;-77
2022/05/31 12:32:26;;;;;;;12.48;7.95;;;18.70;91.50;;;;;;5075112;28;20061;-78
2022/05/31 12:34:53;;;;;;;12.40;8.45;;;18.70;91.50;;;;;;5074962;28;20063;-76
2022/05/31 12:37:19;;;;;;;12.02;8.52;;;18.80;91.30;;;;;;5056129;28;20020;-77
2022/05/31 12:39:47;;;;;;;13.32;7.63;;;18.80;91.30;;;;;;5071729;28;20102;-82
2022/05/31 12:42:12;;;;;;;13.10;8.75;;;18.60;91.50;;;;;;5076739;28;20099;-84
2022/05/31 12:44:40;;;;;;;12.57;6.80;;;18.60;92.10;;;;;;5056940;28;20053;-82
2022/05/31 12:47:14;;;;;;;18.35;8.23;;;18.40;91.20;;;;;;5075312;28;20581;-81
2022/05/31 12:50:10;;;;;;;16.15;7.68;;;18.30;92.20;;;;;;5076146;28;20035;-82
2022/05/31 12:55:33;;;;;;;12.15;8.05;;;18.10;92.20;;;;;;5074412;28;20016;-82
2022/05/31 13:01:14;;;;;;;9.73;5.60;;;17.90;92.70;;;;;;5077941;28;20036;-84
2022/05/31 13:03:40;;;;;;;7.78;5.95;;;17.80;92.20;;;;;;5067698;28;20090;-82
2022/05/31 13:06:29;;;;;;;13.13;9.45;;;17.80;92.20;;;;;;5075727;28;20029;-82
2022/05/31 13:09:01;;;;;;;13.77;8.10;;;17.90;92.70;;;;;;5079236;28;20024;-79
2022/05/31 13:20:09;;;;;;;10.77;6.20;;;18.10;92.30;;;;;;5075644;28;20090;-80
2022/05/31 13:22:38;;;;;;;12.05;8.18;;;18.20;92.00;;;;;;5076938;28;20029;-81
2022/05/31 13:25:23;;;;;;;15.43;7.90;;;18.20;92.40;;;;;;5075221;28;20025;-82
2022/05/31 13:27:52;;;;;;;8.18;7.15;;;18.30;92.70;;;;;;5073985;28;20043;-80
2022/05/31 13:30:21;;;;;;;11.70;7.22;;;18.20;92.70;;;;;;5057215;28;20024;-81
2022/05/31 13:32:47;;;;;;;12.63;7.95;;;18.20;92.70;;;;;;5075201;28;20035;-81
2022/05/31 13:35:25;;;;;;;12.93;8.15;;;18.10;93.00;;;;;;5057522;28;20023;-82
2022/05/31 13:38:02;;;;;;;12.20;7.35;;;18.00;93.70;;;;;;5075722;28;20055;-83
2022/05/31 13:40:33;;;;;;;12.23;7.18;;;18.00;94.00;;;;;;5076269;28;20404;-80
2022/05/31 13:43:02;;;;;;;13.52;7.85;;;17.90;93.90;;;;;;5076807;28;20025;-81